sensor_id;sensor_type;location;lat;lon;timestamp;pressure;altitude;pressure_sealevel;temperature;humidity
26083;BME280;13848;49.018;12.078;2023-08-07T00:01:44;97015.66;;;12.64;84.87
26083;BME280;13848;49.018;12.078;2023-08-07T00:04:10;97010.88;;;12.93;86.14
26083;BME280;13848;49.018;12.078;2023-08-07T00:06:36;97011.81;;;13.03;83.26
26083;BME280;13848;49.018;12.078;2023-08-07T00:09:02;97013.22;;;12.84;83.84
26083;BME280;13848;49.018;12.078;2023-08-07T00:11:28;97014.25;;;12.78;83.80
26083;BME280;13848;49.018;12.078;2023-08-07T00:13:54;97008.22;;;12.71;84.72
26083;BME280;13848;49.018;12.078;2023-08-07T00:16:20;97001.03;;;12.60;84.29
26083;BME280;13848;49.018;12.078;2023-08-07T00:18:47;97008.25;;;12.54;84.71
26083;BME280;13848;49.018;12.078;2023-08-07T00:21:13;96997.25;;;12.61;84.32
26083;BME280;13848;49.018;12.078;2023-08-07T00:23:39;97004.50;;;12.55;84.27
26083;BME280;13848;49.018;12.078;2023-08-07T00:26:05;97012.84;;;12.54;84.45
26083;BME280;13848;49.018;12.078;2023-08-07T00:28:31;97003.41;;;12.56;84.70
26083;BME280;13848;49.018;12.078;2023-08-07T00:30:57;97000.56;;;12.46;84.81
26083;BME280;13848;49.018;12.078;2023-08-07T00:33:23;97009.06;;;12.55;84.66
26083;BME280;13848;49.018;12.078;2023-08-07T00:35:50;96995.69;;;12.43;85.32
26083;BME280;13848;49.018;12.078;2023-08-07T00:38:16;97009.69;;;12.40;85.22
26083;BME280;13848;49.018;12.078;2023-08-07T00:40:42;97003.72;;;12.38;84.77
26083;BME280;13848;49.018;12.078;2023-08-07T00:43:08;97004.09;;;12.46;85.55
26083;BME280;13848;49.018;12.078;2023-08-07T00:45:38;97003.03;;;12.47;85.52
26083;BME280;13848;49.018;12.078;2023-08-07T00:48:07;96997.06;;;12.45;85.35
26083;BME280;13848;49.018;12.078;2023-08-07T00:50:33;96996.63;;;12.54;85.02
26083;BME280;13848;49.018;12.078;2023-08-07T00:53:01;96994.53;;;12.39;84.81
26083;BME280;13848;49.018;12.078;2023-08-07T00:55:28;97001.38;;;12.46;85.24
26083;BME280;13848;49.018;12.078;2023-08-07T00:57:54;97000.75;;;12.39;85.71
26083;BME280;13848;49.018;12.078;2023-08-07T01:00:20;97003.53;;;12.44;85.82
26083;BME280;13848;49.018;12.078;2023-08-07T01:02:47;97005.34;;;12.39;86.13
26083;BME280;13848;49.018;12.078;2023-08-07T01:05:13;97000.75;;;12.39;86.32
26083;BME280;13848;49.018;12.078;2023-08-07T01:07:39;97000.56;;;12.46;85.65
26083;BME280;13848;49.018;12.078;2023-08-07T01:10:07;97005.16;;;12.45;86.27
26083;BME280;13848;49.018;12.078;2023-08-07T01:12:37;97001.91;;;12.43;86.20
26083;BME280;13848;49.018;12.078;2023-08-07T01:15:12;97002.38;;;12.40;87.03
26083;BME280;13848;49.018;12.078;2023-08-07T01:17:42;97000.84;;;12.44;86.60
26083;BME280;13848;49.018;12.078;2023-08-07T01:20:09;97002.38;;;12.40;86.52
26083;BME280;13848;49.018;12.078;2023-08-07T01:22:36;97007.88;;;12.23;87.86
26083;BME280;13848;49.018;12.078;2023-08-07T01:25:02;96999.06;;;12.33;87.19
26083;BME280;13848;49.018;12.078;2023-08-07T01:27:33;96999.66;;;12.35;86.89
26083;BME280;13848;49.018;12.078;2023-08-07T01:30:09;96993.03;;;12.48;86.37
26083;BME280;13848;49.018;12.078;2023-08-07T01:32:43;97000.75;;;12.39;86.98
26083;BME280;13848;49.018;12.078;2023-08-07T01:35:12;97008.25;;;12.32;86.75
26083;BME280;13848;49.018;12.078;2023-08-07T01:37:42;97002.38;;;12.18;88.95
26083;BME280;13848;49.018;12.078;2023-08-07T01:40:10;96996.69;;;12.37;87.45
26083;BME280;13848;49.018;12.078;2023-08-07T01:42:36;97001.28;;;12.36;87.12
26083;BME280;13848;49.018;12.078;2023-08-07T01:45:04;97003.22;;;12.41;87.02
26083;BME280;13848;49.018;12.078;2023-08-07T01:47:30;97008.94;;;12.44;86.65
26083;BME280;13848;49.018;12.078;2023-08-07T01:49:56;97001.91;;;12.43;86.41
26083;BME280;13848;49.018;12.078;2023-08-07T01:52:23;97001.69;;;12.28;86.82
26083;BME280;13848;49.018;12.078;2023-08-07T01:54:50;96999.50;;;12.25;86.76
26083;BME280;13848;49.018;12.078;2023-08-07T01:57:16;97005.63;;;12.20;87.53
26083;BME280;13848;49.018;12.078;2023-08-07T01:59:42;97004.38;;;12.28;87.27
26083;BME280;13848;49.018;12.078;2023-08-07T02:02:07;97008.78;;;12.34;86.89
26083;BME280;13848;49.018;12.078;2023-08-07T02:04:33;97021.91;;;12.42;87.00
26083;BME280;13848;49.018;12.078;2023-08-07T02:06:59;97003.84;;;12.26;87.38
26083;BME280;13848;49.018;12.078;2023-08-07T02:09:25;97012.91;;;12.37;87.01
26083;BME280;13848;49.018;12.078;2023-08-07T02:11:52;97006.03;;;12.29;87.65
26083;BME280;13848;49.018;12.078;2023-08-07T02:14:18;97014.22;;;12.17;87.12
26083;BME280;13848;49.018;12.078;2023-08-07T02:16:44;97014.50;;;12.16;87.21
26083;BME280;13848;49.018;12.078;2023-08-07T02:19:10;97013.50;;;12.22;87.59
26083;BME280;13848;49.018;12.078;2023-08-07T02:21:36;97019.63;;;12.17;87.95
26083;BME280;13848;49.018;12.078;2023-08-07T02:24:02;97015.72;;;12.08;88.53
26083;BME280;13848;49.018;12.078;2023-08-07T02:26:28;97016.06;;;12.12;88.82
26083;BME280;13848;49.018;12.078;2023-08-07T02:28:55;97017.53;;;12.19;87.51
26083;BME280;13848;49.018;12.078;2023-08-07T02:31:21;97026.69;;;12.18;87.33
26083;BME280;13848;49.018;12.078;2023-08-07T02:33:47;97020.41;;;12.13;87.74
26083;BME280;13848;49.018;12.078;2023-08-07T02:36:13;97013.41;;;12.17;87.29
26083;BME280;13848;49.018;12.078;2023-08-07T02:38:39;97031.44;;;12.11;87.84
26083;BME280;13848;49.018;12.078;2023-08-07T02:41:05;97015.22;;;12.11;87.50
26083;BME280;13848;49.018;12.078;2023-08-07T02:43:31;97026.38;;;12.15;87.79
26083;BME280;13848;49.018;12.078;2023-08-07T02:45:58;97031.78;;;12.15;87.46
26083;BME280;13848;49.018;12.078;2023-08-07T02:48:24;97026.22;;;12.05;87.78
26083;BME280;13848;49.018;12.078;2023-08-07T02:50:50;97025.72;;;12.08;87.73
26083;BME280;13848;49.018;12.078;2023-08-07T02:53:16;97040.72;;;11.98;87.63
26083;BME280;13848;49.018;12.078;2023-08-07T02:55:42;97031.63;;;12.05;88.18
26083;BME280;13848;49.018;12.078;2023-08-07T02:58:08;97029.00;;;12.10;88.11
26083;BME280;13848;49.018;12.078;2023-08-07T03:00:34;97042.19;;;12.06;87.70
26083;BME280;13848;49.018;12.078;2023-08-07T03:03:01;97048.63;;;12.05;88.30
26083;BME280;13848;49.018;12.078;2023-08-07T03:05:27;97042.59;;;11.98;89.07
26083;BME280;13848;49.018;12.078;2023-08-07T03:07:53;97046.75;;;12.06;88.42
26083;BME280;13848;49.018;12.078;2023-08-07T03:10:19;97044.31;;;12.04;88.00
26083;BME280;13848;49.018;12.078;2023-08-07T03:12:45;97047.34;;;12.08;87.82
26083;BME280;13848;49.018;12.078;2023-08-07T03:15:11;97050.63;;;11.93;89.27
26083;BME280;13848;49.018;12.078;2023-08-07T03:17:37;97051.94;;;12.07;88.06
26083;BME280;13848;49.018;12.078;2023-08-07T03:20:05;97056.53;;;12.07;88.00
26083;BME280;13848;49.018;12.078;2023-08-07T03:22:31;97069.94;;;12.02;88.41
26083;BME280;13848;49.018;12.078;2023-08-07T03:24:57;97064.53;;;12.02;87.75
26083;BME280;13848;49.018;12.078;2023-08-07T03:27:23;97070.44;;;11.98;87.78
26083;BME280;13848;49.018;12.078;2023-08-07T03:29:49;97077.25;;;12.01;87.92
26083;BME280;13848;49.018;12.078;2023-08-07T03:32:16;97077.22;;;11.84;89.52
26083;BME280;13848;49.018;12.078;2023-08-07T03:34:42;97075.66;;;11.88;88.95
26083;BME280;13848;49.018;12.078;2023-08-07T03:37:09;97073.53;;;11.90;89.26
26083;BME280;13848;49.018;12.078;2023-08-07T03:39:35;97086.97;;;11.85;89.03
26083;BME280;13848;49.018;12.078;2023-08-07T03:42:01;97091.13;;;11.93;88.75
26083;BME280;13848;49.018;12.078;2023-08-07T03:44:27;97095.81;;;11.97;88.60
26083;BME280;13848;49.018;12.078;2023-08-07T03:46:53;97102.38;;;12.02;89.03
26083;BME280;13848;49.018;12.078;2023-08-07T03:49:18;97100.06;;;11.93;88.17
26083;BME280;13848;49.018;12.078;2023-08-07T03:51:44;97102.00;;;11.81;89.05
26083;BME280;13848;49.018;12.078;2023-08-07T03:54:12;97106.56;;;11.81;89.27
26083;BME280;13848;49.018;12.078;2023-08-07T03:56:38;97117.75;;;11.84;89.05
26083;BME280;13848;49.018;12.078;2023-08-07T03:59:04;97117.25;;;11.87;88.25
26083;BME280;13848;49.018;12.078;2023-08-07T04:01:29;97121.00;;;11.86;89.17
26083;BME280;13848;49.018;12.078;2023-08-07T04:03:55;97128.69;;;11.78;89.36
26083;BME280;13848;49.018;12.078;2023-08-07T04:06:21;97128.56;;;11.84;89.60
26083;BME280;13848;49.018;12.078;2023-08-07T04:08:47;97133.53;;;11.92;88.42
26083;BME280;13848;49.018;12.078;2023-08-07T04:11:15;97127.47;;;11.85;89.02
26083;BME280;13848;49.018;12.078;2023-08-07T04:13:41;97132.19;;;11.78;89.24
26083;BME280;13848;49.018;12.078;2023-08-07T04:16:07;97139.69;;;11.76;89.20
26083;BME280;13848;49.018;12.078;2023-08-07T04:18:33;97153.19;;;11.76;89.40
26083;BME280;13848;49.018;12.078;2023-08-07T04:20:59;97147.94;;;11.69;90.27
26083;BME280;13848;49.018;12.078;2023-08-07T04:23:25;97155.34;;;11.74;89.53
26083;BME280;13848;49.018;12.078;2023-08-07T04:25:53;97160.75;;;11.74;89.53
26083;BME280;13848;49.018;12.078;2023-08-07T04:28:20;97166.72;;;11.76;90.08
26083;BME280;13848;49.018;12.078;2023-08-07T04:30:49;97159.56;;;11.70;89.92
26083;BME280;13848;49.018;12.078;2023-08-07T04:33:16;97163.28;;;11.81;89.28
26083;BME280;13848;49.018;12.078;2023-08-07T04:35:41;97171.19;;;11.70;89.57
26083;BME280;13848;49.018;12.078;2023-08-07T04:38:07;97161.09;;;11.78;89.03
26083;BME280;13848;49.018;12.078;2023-08-07T04:40:33;97174.34;;;11.79;89.02
26083;BME280;13848;49.018;12.078;2023-08-07T04:42:59;97172.25;;;11.81;89.24
26083;BME280;13848;49.018;12.078;2023-08-07T04:45:26;97181.75;;;11.84;89.68
26083;BME280;13848;49.018;12.078;2023-08-07T04:47:52;97174.81;;;11.76;89.36
26083;BME280;13848;49.018;12.078;2023-08-07T04:50:18;97178.69;;;11.80;88.96
26083;BME280;13848;49.018;12.078;2023-08-07T04:52:44;97183.72;;;11.88;88.88
26083;BME280;13848;49.018;12.078;2023-08-07T04:55:10;97183.03;;;11.81;88.86
26083;BME280;13848;49.018;12.078;2023-08-07T04:57:36;97188.56;;;11.75;89.73
26083;BME280;13848;49.018;12.078;2023-08-07T05:00:03;97183.03;;;11.81;89.57
26083;BME280;13848;49.018;12.078;2023-08-07T05:02:30;97195.47;;;11.82;88.74
26083;BME280;13848;49.018;12.078;2023-08-07T05:04:56;97191.25;;;11.86;88.12
26083;BME280;13848;49.018;12.078;2023-08-07T05:07:22;97191.75;;;11.83;88.45
26083;BME280;13848;49.018;12.078;2023-08-07T05:09:48;97200.19;;;11.75;88.09
26083;BME280;13848;49.018;12.078;2023-08-07T05:12:14;97202.06;;;11.75;88.74
26083;BME280;13848;49.018;12.078;2023-08-07T05:14:40;97204.31;;;11.78;88.03
26083;BME280;13848;49.018;12.078;2023-08-07T05:17:06;97198.06;;;11.77;88.49
26083;BME280;13848;49.018;12.078;2023-08-07T05:19:33;97207.63;;;11.68;89.09
26083;BME280;13848;49.018;12.078;2023-08-07T05:21:59;97206.44;;;11.64;89.69
26083;BME280;13848;49.018;12.078;2023-08-07T05:24:25;97210.97;;;11.75;89.66
26083;BME280;13848;49.018;12.078;2023-08-07T05:26:51;97221.31;;;11.78;89.09
26083;BME280;13848;49.018;12.078;2023-08-07T05:29:16;97226.00;;;11.83;89.04
26083;BME280;13848;49.018;12.078;2023-08-07T05:31:42;97227.53;;;11.79;88.67
26083;BME280;13848;49.018;12.078;2023-08-07T05:34:08;97229.78;;;11.70;89.12
26083;BME280;13848;49.018;12.078;2023-08-07T05:36:35;97233.09;;;11.72;89.43
26083;BME280;13848;49.018;12.078;2023-08-07T05:39:02;97232.69;;;11.80;88.86
26083;BME280;13848;49.018;12.078;2023-08-07T05:41:28;97238.59;;;11.77;88.97
26083;BME280;13848;49.018;12.078;2023-08-07T05:43:54;97232.69;;;11.80;88.94
26083;BME280;13848;49.018;12.078;2023-08-07T05:46:19;97243.88;;;11.72;89.54
26083;BME280;13848;49.018;12.078;2023-08-07T05:48:45;97245.16;;;11.69;89.44
26083;BME280;13848;49.018;12.078;2023-08-07T05:51:11;97242.81;;;11.73;89.53
26083;BME280;13848;49.018;12.078;2023-08-07T05:53:38;97249.28;;;11.72;89.64
26083;BME280;13848;49.018;12.078;2023-08-07T05:56:04;97257.16;;;11.73;89.83
26083;BME280;13848;49.018;12.078;2023-08-07T05:58:30;97257.81;;;11.81;89.51
26083;BME280;13848;49.018;12.078;2023-08-07T06:00:56;97253.03;;;11.71;89.25
26083;BME280;13848;49.018;12.078;2023-08-07T06:03:22;97265.84;;;11.64;90.21
26083;BME280;13848;49.018;12.078;2023-08-07T06:05:48;97265.00;;;11.75;89.69
26083;BME280;13848;49.018;12.078;2023-08-07T06:08:14;97262.53;;;11.73;90.31
26083;BME280;13848;49.018;12.078;2023-08-07T06:10:41;97270.75;;;11.79;89.84
26083;BME280;13848;49.018;12.078;2023-08-07T06:13:07;97271.84;;;11.66;89.29
26083;BME280;13848;49.018;12.078;2023-08-07T06:15:33;97277.94;;;11.73;90.01
26083;BME280;13848;49.018;12.078;2023-08-07T06:17:59;97278.19;;;11.83;89.70
26083;BME280;13848;49.018;12.078;2023-08-07T06:20:25;97279.31;;;11.87;89.16
26083;BME280;13848;49.018;12.078;2023-08-07T06:22:51;97286.28;;;11.83;89.29
26083;BME280;13848;49.018;12.078;2023-08-07T06:25:17;97294.38;;;11.83;90.76
26083;BME280;13848;49.018;12.078;2023-08-07T06:27:44;97293.88;;;11.86;88.91
26083;BME280;13848;49.018;12.078;2023-08-07T06:30:11;97290.72;;;11.89;88.99
26083;BME280;13848;49.018;12.078;2023-08-07T06:32:37;97289.31;;;11.87;90.35
26083;BME280;13848;49.018;12.078;2023-08-07T06:35:03;97296.13;;;11.89;89.43
26083;BME280;13848;49.018;12.078;2023-08-07T06:37:30;97298.81;;;11.89;89.03
26083;BME280;13848;49.018;12.078;2023-08-07T06:39:55;97302.56;;;11.77;89.03
26083;BME280;13848;49.018;12.078;2023-08-07T06:42:21;97295.19;;;11.72;89.20
26083;BME280;13848;49.018;12.078;2023-08-07T06:44:49;97309.16;;;11.69;89.46
26083;BME280;13848;49.018;12.078;2023-08-07T06:47:14;97296.47;;;11.81;89.33
26083;BME280;13848;49.018;12.078;2023-08-07T06:49:40;97303.06;;;11.85;88.61
26083;BME280;13848;49.018;12.078;2023-08-07T06:52:07;97316.91;;;11.77;89.26
26083;BME280;13848;49.018;12.078;2023-08-07T06:54:33;97322.41;;;11.70;89.26
26083;BME280;13848;49.018;12.078;2023-08-07T06:56:58;97317.84;;;11.71;88.74
26083;BME280;13848;49.018;12.078;2023-08-07T06:59:24;97317.84;;;11.83;88.86
26083;BME280;13848;49.018;12.078;2023-08-07T07:01:52;97323.72;;;11.91;88.41
26083;BME280;13848;49.018;12.078;2023-08-07T07:04:18;97321.59;;;11.93;88.32
26083;BME280;13848;49.018;12.078;2023-08-07T07:06:44;97325.22;;;11.99;88.96
26083;BME280;13848;49.018;12.078;2023-08-07T07:09:10;97324.59;;;12.09;88.20
26083;BME280;13848;49.018;12.078;2023-08-07T07:11:36;97324.59;;;12.09;88.01
26083;BME280;13848;49.018;12.078;2023-08-07T07:14:01;97327.88;;;12.11;88.05
26083;BME280;13848;49.018;12.078;2023-08-07T07:16:27;97329.44;;;12.07;87.64
26083;BME280;13848;49.018;12.078;2023-08-07T07:18:55;97334.94;;;12.12;87.08
26083;BME280;13848;49.018;12.078;2023-08-07T07:21:21;97345.16;;;12.10;87.42
26083;BME280;13848;49.018;12.078;2023-08-07T07:23:47;97335.06;;;12.05;87.65
26083;BME280;13848;49.018;12.078;2023-08-07T07:26:13;97343.31;;;11.98;87.50
26083;BME280;13848;49.018;12.078;2023-08-07T07:28:38;97349.63;;;12.04;87.64
26083;BME280;13848;49.018;12.078;2023-08-07T07:31:04;97347.19;;;12.03;87.88
26083;BME280;13848;49.018;12.078;2023-08-07T07:33:30;97350.44;;;12.05;87.19
26083;BME280;13848;49.018;12.078;2023-08-07T07:35:58;97357.03;;;12.09;86.97
26083;BME280;13848;49.018;12.078;2023-08-07T07:38:24;97365.38;;;12.07;86.50
26083;BME280;13848;49.018;12.078;2023-08-07T07:40:49;97366.81;;;11.98;87.07
26083;BME280;13848;49.018;12.078;2023-08-07T07:43:15;97364.81;;;11.93;87.30
26083;BME280;13848;49.018;12.078;2023-08-07T07:45:42;97368.22;;;12.01;87.71
26083;BME280;13848;49.018;12.078;2023-08-07T07:48:09;97375.38;;;12.07;88.44
26083;BME280;13848;49.018;12.078;2023-08-07T07:50:35;97384.63;;;12.11;88.54
26083;BME280;13848;49.018;12.078;2023-08-07T07:53:02;97384.06;;;12.09;87.76
26083;BME280;13848;49.018;12.078;2023-08-07T07:55:28;97389.31;;;12.15;88.20
26083;BME280;13848;49.018;12.078;2023-08-07T07:57:54;97394.16;;;12.13;87.77
26083;BME280;13848;49.018;12.078;2023-08-07T08:00:20;97399.88;;;12.17;87.91
26083;BME280;13848;49.018;12.078;2023-08-07T08:02:46;97395.09;;;12.19;87.18
26083;BME280;13848;49.018;12.078;2023-08-07T08:05:12;97404.25;;;12.18;87.33
26083;BME280;13848;49.018;12.078;2023-08-07T08:07:38;97398.31;;;12.33;87.23
26083;BME280;13848;49.018;12.078;2023-08-07T08:10:07;97398.09;;;12.22;86.95
26083;BME280;13848;49.018;12.078;2023-08-07T08:12:34;97406.03;;;12.12;87.86
26083;BME280;13848;49.018;12.078;2023-08-07T08:15:00;97410.81;;;12.22;87.53
26083;BME280;13848;49.018;12.078;2023-08-07T08:17:26;97410.81;;;12.22;87.24
26083;BME280;13848;49.018;12.078;2023-08-07T08:19:52;97411.28;;;12.19;87.17
26083;BME280;13848;49.018;12.078;2023-08-07T08:22:18;97418.13;;;12.10;87.79
26083;BME280;13848;49.018;12.078;2023-08-07T08:24:44;97414.22;;;12.17;88.01
26083;BME280;13848;49.018;12.078;2023-08-07T08:27:11;97419.69;;;12.34;87.88
26083;BME280;13848;49.018;12.078;2023-08-07T08:29:37;97414.66;;;12.38;86.85
26083;BME280;13848;49.018;12.078;2023-08-07T08:32:04;97422.66;;;12.33;87.90
26083;BME280;13848;49.018;12.078;2023-08-07T08:34:30;97427.25;;;12.32;86.67
26083;BME280;13848;49.018;12.078;2023-08-07T08:36:56;97437.38;;;12.25;85.99
26083;BME280;13848;49.018;12.078;2023-08-07T08:39:22;97430.69;;;12.16;86.06
26083;BME280;13848;49.018;12.078;2023-08-07T08:41:49;97438.47;;;12.12;87.04
26083;BME280;13848;49.018;12.078;2023-08-07T08:44:19;97432.53;;;12.27;86.48
26083;BME280;13848;49.018;12.078;2023-08-07T08:46:48;97441.31;;;12.34;86.83
26083;BME280;13848;49.018;12.078;2023-08-07T08:49:16;97449.09;;;12.42;86.49
26083;BME280;13848;49.018;12.078;2023-08-07T08:51:46;97456.94;;;12.44;86.72
26083;BME280;13848;49.018;12.078;2023-08-07T08:54:13;97455.75;;;12.51;85.91
26083;BME280;13848;49.018;12.078;2023-08-07T08:56:39;97454.72;;;12.52;85.91
26083;BME280;13848;49.018;12.078;2023-08-07T08:59:05;97458.72;;;12.38;85.12
26083;BME280;13848;49.018;12.078;2023-08-07T09:01:33;97468.84;;;12.31;85.75
26083;BME280;13848;49.018;12.078;2023-08-07T09:03:59;97462.03;;;12.29;86.12
26083;BME280;13848;49.018;12.078;2023-08-07T09:06:27;97479.53;;;12.38;86.48
26083;BME280;13848;49.018;12.078;2023-08-07T09:08:56;97486.13;;;12.30;84.99
26083;BME280;13848;49.018;12.078;2023-08-07T09:11:23;97483.78;;;12.22;85.51
26083;BME280;13848;49.018;12.078;2023-08-07T09:13:49;97484.97;;;12.26;86.11
26083;BME280;13848;49.018;12.078;2023-08-07T09:16:16;97484.84;;;12.21;85.36
26083;BME280;13848;49.018;12.078;2023-08-07T09:18:44;97494.84;;;12.20;85.98
26083;BME280;13848;49.018;12.078;2023-08-07T09:21:10;97498.94;;;12.23;86.50
26083;BME280;13848;49.018;12.078;2023-08-07T09:23:36;97500.69;;;12.29;86.42
26083;BME280;13848;49.018;12.078;2023-08-07T09:26:03;97508.09;;;12.22;87.48
26083;BME280;13848;49.018;12.078;2023-08-07T09:28:31;97505.66;;;12.20;87.44
26083;BME280;13848;49.018;12.078;2023-08-07T09:30:58;97507.91;;;12.23;86.97
26083;BME280;13848;49.018;12.078;2023-08-07T09:33:25;97506.22;;;12.22;86.35
26083;BME280;13848;49.018;12.078;2023-08-07T09:35:52;97502.25;;;12.25;86.15
26083;BME280;13848;49.018;12.078;2023-08-07T09:38:18;97503.53;;;12.11;86.53
26083;BME280;13848;49.018;12.078;2023-08-07T09:40:44;97513.28;;;12.35;86.81
26083;BME280;13848;49.018;12.078;2023-08-07T09:43:20;97506.69;;;12.43;86.12
26083;BME280;13848;49.018;12.078;2023-08-07T09:45:46;97520.06;;;12.49;85.66
26083;BME280;13848;49.018;12.078;2023-08-07T09:48:13;97526.06;;;12.40;85.24
26083;BME280;13848;49.018;12.078;2023-08-07T09:50:39;97518.69;;;12.35;86.12
26083;BME280;13848;49.018;12.078;2023-08-07T09:53:06;97526.81;;;12.35;85.41
26083;BME280;13848;49.018;12.078;2023-08-07T09:55:32;97523.75;;;12.32;85.47
26083;BME280;13848;49.018;12.078;2023-08-07T09:58:00;97537.00;;;12.33;85.42
26083;BME280;13848;49.018;12.078;2023-08-07T10:00:26;97532.09;;;12.30;85.73
26083;BME280;13848;49.018;12.078;2023-08-07T10:02:54;97530.78;;;12.21;85.82
26083;BME280;13848;49.018;12.078;2023-08-07T10:05:19;97533.88;;;12.24;85.66
26083;BME280;13848;49.018;12.078;2023-08-07T10:07:46;97531.97;;;12.37;85.32
26083;BME280;13848;49.018;12.078;2023-08-07T10:10:14;97536.75;;;12.46;85.32
26083;BME280;13848;49.018;12.078;2023-08-07T10:12:41;97537.13;;;12.50;85.59
26083;BME280;13848;49.018;12.078;2023-08-07T10:15:07;97534.03;;;12.70;85.60
26083;BME280;13848;49.018;12.078;2023-08-07T10:17:34;97536.41;;;12.55;85.91
26083;BME280;13848;49.018;12.078;2023-08-07T10:20:00;97545.09;;;12.57;84.75
26083;BME280;13848;49.018;12.078;2023-08-07T10:22:29;97541.53;;;12.68;85.37
26083;BME280;13848;49.018;12.078;2023-08-07T10:24:57;97538.53;;;12.64;84.94
26083;BME280;13848;49.018;12.078;2023-08-07T10:27:27;97540.97;;;12.66;84.59
26083;BME280;13848;49.018;12.078;2023-08-07T10:29:55;97540.69;;;12.79;84.99
26083;BME280;13848;49.018;12.078;2023-08-07T10:32:22;97540.78;;;12.96;85.68
26083;BME280;13848;49.018;12.078;2023-08-07T10:34:50;97554.66;;;12.99;86.52
26083;BME280;13848;49.018;12.078;2023-08-07T10:37:40;97552.66;;;12.95;83.93
26083;BME280;13848;49.018;12.078;2023-08-07T10:40:07;97553.19;;;13.09;84.21
26083;BME280;13848;49.018;12.078;2023-08-07T10:45:28;97541.78;;;13.07;83.41
26083;BME280;13848;49.018;12.078;2023-08-07T10:48:01;97535.06;;;13.21;83.25
26083;BME280;13848;49.018;12.078;2023-08-07T10:50:28;97544.34;;;13.25;82.22
26083;BME280;13848;49.018;12.078;2023-08-07T10:52:54;97559.88;;;13.18;82.40
26083;BME280;13848;49.018;12.078;2023-08-07T10:55:20;97555.19;;;13.13;82.51
26083;BME280;13848;49.018;12.078;2023-08-07T10:57:46;97550.31;;;13.27;82.83
26083;BME280;13848;49.018;12.078;2023-08-07T11:00:13;97555.53;;;13.17;82.80
26083;BME280;13848;49.018;12.078;2023-08-07T11:02:41;97553.28;;;13.25;81.76
26083;BME280;13848;49.018;12.078;2023-08-07T11:05:08;97558.25;;;13.17;81.21
26083;BME280;13848;49.018;12.078;2023-08-07T11:07:34;97546.78;;;13.26;82.03
26083;BME280;13848;49.018;12.078;2023-08-07T11:10:06;97547.81;;;13.37;81.37
26083;BME280;13848;49.018;12.078;2023-08-07T11:12:32;97546.22;;;13.24;80.56
26083;BME280;13848;49.018;12.078;2023-08-07T11:14:58;97564.28;;;13.07;81.72
26083;BME280;13848;49.018;12.078;2023-08-07T11:17:24;97559.28;;;13.16;81.92
26083;BME280;13848;49.018;12.078;2023-08-07T11:19:52;97548.94;;;13.24;81.91
26083;BME280;13848;49.018;12.078;2023-08-07T11:22:18;97552.91;;;13.34;81.49
26083;BME280;13848;49.018;12.078;2023-08-07T11:24:45;97558.69;;;13.25;82.58
26083;BME280;13848;49.018;12.078;2023-08-07T11:27:11;97557.50;;;13.50;82.04
26083;BME280;13848;49.018;12.078;2023-08-07T11:29:37;97549.16;;;13.51;80.63
26083;BME280;13848;49.018;12.078;2023-08-07T11:32:04;97563.38;;;13.58;81.11
26083;BME280;13848;49.018;12.078;2023-08-07T11:34:30;97549.50;;;13.72;81.46
26083;BME280;13848;49.018;12.078;2023-08-07T11:36:58;97552.53;;;13.58;80.90
26083;BME280;13848;49.018;12.078;2023-08-07T11:39:24;97554.03;;;13.38;82.76
26083;BME280;13848;49.018;12.078;2023-08-07T11:41:50;97556.88;;;13.60;82.12
26083;BME280;13848;49.018;12.078;2023-08-07T11:44:16;97549.16;;;13.51;80.37
26083;BME280;13848;49.018;12.078;2023-08-07T11:46:42;97547.13;;;13.58;81.90
26083;BME280;13848;49.018;12.078;2023-08-07T11:49:08;97550.84;;;13.69;80.76
26083;BME280;13848;49.018;12.078;2023-08-07T11:51:34;97556.00;;;13.71;79.35
26083;BME280;13848;49.018;12.078;2023-08-07T11:54:02;97550.84;;;13.69;79.57
26083;BME280;13848;49.018;12.078;2023-08-07T11:56:29;97562.16;;;13.83;79.35
26083;BME280;13848;49.018;12.078;2023-08-07T11:58:56;97568.31;;;13.78;79.05
26083;BME280;13848;49.018;12.078;2023-08-07T12:01:24;97566.75;;;13.66;78.56
26083;BME280;13848;49.018;12.078;2023-08-07T12:03:52;97569.78;;;13.52;78.50
26083;BME280;13848;49.018;12.078;2023-08-07T12:06:18;97568.13;;;13.51;79.64
26083;BME280;13848;49.018;12.078;2023-08-07T12:08:44;97574.41;;;13.69;79.44
26083;BME280;13848;49.018;12.078;2023-08-07T12:11:12;97578.56;;;13.60;79.06
26083;BME280;13848;49.018;12.078;2023-08-07T12:13:40;97587.03;;;13.63;79.11
26083;BME280;13848;49.018;12.078;2023-08-07T12:16:07;97585.47;;;13.67;78.60
26083;BME280;13848;49.018;12.078;2023-08-07T12:18:33;97598.97;;;13.50;77.76
26083;BME280;13848;49.018;12.078;2023-08-07T12:21:00;97595.78;;;13.53;77.57
26083;BME280;13848;49.018;12.078;2023-08-07T12:23:26;97594.31;;;13.46;78.35
26083;BME280;13848;49.018;12.078;2023-08-07T12:25:53;97604.72;;;13.54;78.33
26083;BME280;13848;49.018;12.078;2023-08-07T12:28:21;97601.50;;;13.40;77.71
26083;BME280;13848;49.018;12.078;2023-08-07T12:30:47;97599.50;;;13.36;77.84
26083;BME280;13848;49.018;12.078;2023-08-07T12:33:14;97591.13;;;13.37;78.01
26083;BME280;13848;49.018;12.078;2023-08-07T12:35:40;97594.47;;;13.56;77.89
26083;BME280;13848;49.018;12.078;2023-08-07T12:38:07;97595.28;;;13.56;77.40
26083;BME280;13848;49.018;12.078;2023-08-07T12:40:33;97594.81;;;13.60;78.48
26083;BME280;13848;49.018;12.078;2023-08-07T12:42:59;97595.09;;;13.75;77.74
26083;BME280;13848;49.018;12.078;2023-08-07T12:45:26;97594.22;;;13.86;77.40
26083;BME280;13848;49.018;12.078;2023-08-07T12:47:52;97596.41;;;13.89;76.61
26083;BME280;13848;49.018;12.078;2023-08-07T12:50:18;97595.88;;;14.04;76.94